sensor_id;sensor_type;location;lat;lon;timestamp;P1;durP1;ratioP1;P2;durP2;ratioP2
20185;SDS011;10252;48.792;8.582;2022-09-16T00:02:29;7.97;;;6.03;;
20185;SDS011;10252;48.792;8.582;2022-09-16T00:07:30;6.72;;;6.03;;
20185;SDS011;10252;48.792;8.582;2022-09-16T00:12:31;6.40;;;5.28;;
20185;SDS011;10252;48.792;8.582;2022-09-16T00:17:32;8.43;;;6.28;;
20185;SDS011;10252;48.792;8.582;2022-09-16T00:22:34;6.05;;;5.30;;
20185;SDS011;10252;48.792;8.582;2022-09-16T00:27:35;8.65;;;5.20;;
20185;SDS011;10252;48.792;8.582;2022-09-16T00:32:36;8.35;;;5.50;;
20185;SDS011;10252;48.792;8.582;2022-09-16T00:37:37;6.70;;;5.70;;
20185;SDS011;10252;48.792;8.582;2022-09-16T00:42:39;8.35;;;5.32;;
20185;SDS011;10252;48.792;8.582;2022-09-16T00:47:41;9.13;;;4.82;;
20185;SDS011;10252;48.792;8.582;2022-09-16T00:52:43;5.68;;;4.75;;
20185;SDS011;10252;48.792;8.582;2022-09-16T00:57:44;8.23;;;5.68;;
20185;SDS011;10252;48.792;8.582;2022-09-16T01:02:46;8.93;;;5.00;;
20185;SDS011;10252;48.792;8.582;2022-09-16T01:07:47;7.07;;;5.65;;
20185;SDS011;10252;48.792;8.582;2022-09-16T01:23:33;6.75;;;5.53;;
20185;SDS011;10252;48.792;8.582;2022-09-16T01:34:04;5.80;;;5.20;;
20185;SDS011;10252;48.792;8.582;2022-09-16T01:44:19;5.78;;;5.18;;
20185;SDS011;10252;48.792;8.582;2022-09-16T01:54:26;6.70;;;5.72;;
20185;SDS011;10252;48.792;8.582;2022-09-16T02:04:40;8.68;;;6.13;;
20185;SDS011;10252;48.792;8.582;2022-09-16T02:09:43;8.68;;;5.82;;
20185;SDS011;10252;48.792;8.582;2022-09-16T02:14:46;8.30;;;5.40;;
20185;SDS011;10252;48.792;8.582;2022-09-16T02:19:51;7.10;;;5.22;;
20185;SDS011;10252;48.792;8.582;2022-09-16T02:24:54;7.57;;;6.00;;
20185;SDS011;10252;48.792;8.582;2022-09-16T02:30:02;9.23;;;4.93;;
20185;SDS011;10252;48.792;8.582;2022-09-16T02:35:05;7.15;;;5.10;;
20185;SDS011;10252;48.792;8.582;2022-09-16T02:40:11;6.47;;;5.38;;
20185;SDS011;10252;48.792;8.582;2022-09-16T02:45:14;8.95;;;5.72;;
20185;SDS011;10252;48.792;8.582;2022-09-16T02:55:53;13.48;;;5.38;;
20185;SDS011;10252;48.792;8.582;2022-09-16T03:00:54;7.43;;;5.50;;
20185;SDS011;10252;48.792;8.582;2022-09-16T03:06:17;7.57;;;4.95;;
20185;SDS011;10252;48.792;8.582;2022-09-16T03:16:22;5.68;;;4.60;;
20185;SDS011;10252;48.792;8.582;2022-09-16T03:21:31;5.30;;;4.28;;
20185;SDS011;10252;48.792;8.582;2022-09-16T03:26:38;6.28;;;5.05;;
20185;SDS011;10252;48.792;8.582;2022-09-16T03:31:57;5.70;;;5.18;;
20185;SDS011;10252;48.792;8.582;2022-09-16T03:37:00;6.10;;;4.72;;
20185;SDS011;10252;48.792;8.582;2022-09-16T03:42:03;7.63;;;5.03;;
20185;SDS011;10252;48.792;8.582;2022-09-16T03:47:05;6.10;;;5.32;;
20185;SDS011;10252;48.792;8.582;2022-09-16T03:52:07;5.03;;;4.63;;
20185;SDS011;10252;48.792;8.582;2022-09-16T03:57:08;7.35;;;4.68;;
20185;SDS011;10252;48.792;8.582;2022-09-16T04:02:09;6.93;;;5.13;;
20185;SDS011;10252;48.792;8.582;2022-09-16T04:07:10;7.50;;;5.10;;
20185;SDS011;10252;48.792;8.582;2022-09-16T04:12:11;12.52;;;5.15;;
20185;SDS011;10252;48.792;8.582;2022-09-16T04:17:13;9.63;;;5.03;;
20185;SDS011;10252;48.792;8.582;2022-09-16T04:22:14;6.03;;;5.28;;
20185;SDS011;10252;48.792;8.582;2022-09-16T04:27:15;8.38;;;5.50;;
20185;SDS011;10252;48.792;8.582;2022-09-16T04:32:16;6.63;;;5.90;;
20185;SDS011;10252;48.792;8.582;2022-09-16T04:37:17;11.10;;;6.00;;
20185;SDS011;10252;48.792;8.582;2022-09-16T04:42:18;6.82;;;5.85;;
20185;SDS011;10252;48.792;8.582;2022-09-16T04:47:19;7.95;;;5.93;;
20185;SDS011;10252;48.792;8.582;2022-09-16T04:52:21;8.13;;;5.93;;
20185;SDS011;10252;48.792;8.582;2022-09-16T04:57:22;12.82;;;6.13;;
20185;SDS011;10252;48.792;8.582;2022-09-16T05:02:23;7.38;;;6.20;;
20185;SDS011;10252;48.792;8.582;2022-09-16T05:07:26;9.68;;;6.38;;
20185;SDS011;10252;48.792;8.582;2022-09-16T05:12:27;11.05;;;7.05;;
20185;SDS011;10252;48.792;8.582;2022-09-16T05:17:28;7.65;;;6.03;;
20185;SDS011;10252;48.792;8.582;2022-09-16T05:22:30;8.25;;;6.10;;
20185;SDS011;10252;48.792;8.582;2022-09-16T05:27:31;7.70;;;6.90;;
20185;SDS011;10252;48.792;8.582;2022-09-16T05:32:33;10.57;;;6.90;;
20185;SDS011;10252;48.792;8.582;2022-09-16T05:37:34;13.27;;;7.50;;
20185;SDS011;10252;48.792;8.582;2022-09-16T05:42:35;9.68;;;6.78;;
20185;SDS011;10252;48.792;8.582;2022-09-16T05:47:36;6.63;;;6.00;;
20185;SDS011;10252;48.792;8.582;2022-09-16T05:52:37;10.05;;;6.18;;
20185;SDS011;10252;48.792;8.582;2022-09-16T05:57:38;6.85;;;5.95;;
20185;SDS011;10252;48.792;8.582;2022-09-16T06:02:39;7.68;;;5.60;;
20185;SDS011;10252;48.792;8.582;2022-09-16T06:07:40;10.13;;;6.28;;
20185;SDS011;10252;48.792;8.582;2022-09-16T06:12:41;8.20;;;5.57;;
20185;SDS011;10252;48.792;8.582;2022-09-16T06:17:42;8.10;;;6.50;;
20185;SDS011;10252;48.792;8.582;2022-09-16T06:22:43;8.73;;;6.00;;
20185;SDS011;10252;48.792;8.582;2022-09-16T06:27:44;9.10;;;7.13;;
20185;SDS011;10252;48.792;8.582;2022-09-16T06:32:45;11.25;;;8.35;;
20185;SDS011;10252;48.792;8.582;2022-09-16T06:37:46;13.10;;;8.10;;
20185;SDS011;10252;48.792;8.582;2022-09-16T06:42:47;14.10;;;8.48;;
20185;SDS011;10252;48.792;8.582;2022-09-16T06:47:48;11.98;;;8.82;;
20185;SDS011;10252;48.792;8.582;2022-09-16T06:52:49;10.25;;;8.55;;
20185;SDS011;10252;48.792;8.582;2022-09-16T06:57:51;8.55;;;7.53;;
20185;SDS011;10252;48.792;8.582;2022-09-16T07:02:52;9.00;;;7.50;;
20185;SDS011;10252;48.792;8.582;2022-09-16T07:07:53;11.45;;;7.60;;
20185;SDS011;10252;48.792;8.582;2022-09-16T07:12:54;8.18;;;6.63;;
20185;SDS011;10252;48.792;8.582;2022-09-16T07:17:55;8.75;;;6.88;;
20185;SDS011;10252;48.792;8.582;2022-09-16T07:22:56;8.40;;;6.68;;
20185;SDS011;10252;48.792;8.582;2022-09-16T07:27:58;7.45;;;5.95;;
20185;SDS011;10252;48.792;8.582;2022-09-16T07:32:59;6.60;;;4.78;;
20185;SDS011;10252;48.792;8.582;2022-09-16T07:38:00;5.65;;;4.60;;
20185;SDS011;10252;48.792;8.582;2022-09-16T07:43:01;7.10;;;4.85;;
20185;SDS011;10252;48.792;8.582;2022-09-16T07:48:03;5.07;;;4.18;;
20185;SDS011;10252;48.792;8.582;2022-09-16T07:53:04;5.90;;;4.50;;
20185;SDS011;10252;48.792;8.582;2022-09-16T07:58:05;5.55;;;4.07;;
20185;SDS011;10252;48.792;8.582;2022-09-16T08:03:06;7.70;;;5.43;;
20185;SDS011;10252;48.792;8.582;2022-09-16T08:08:07;6.93;;;3.95;;
20185;SDS011;10252;48.792;8.582;2022-09-16T08:13:08;4.30;;;2.95;;
20185;SDS011;10252;48.792;8.582;2022-09-16T08:18:09;4.20;;;3.13;;
20185;SDS011;10252;48.792;8.582;2022-09-16T08:23:11;5.13;;;3.60;;
20185;SDS011;10252;48.792;8.582;2022-09-16T08:28:14;6.07;;;3.20;;
20185;SDS011;10252;48.792;8.582;2022-09-16T08:33:15;5.45;;;2.97;;
20185;SDS011;10252;48.792;8.582;2022-09-16T08:38:20;4.30;;;3.08;;
20185;SDS011;10252;48.792;8.582;2022-09-16T08:43:41;5.13;;;3.53;;
20185;SDS011;10252;48.792;8.582;2022-09-16T08:48:50;5.80;;;2.70;;
20185;SDS011;10252;48.792;8.582;2022-09-16T08:53:56;4.28;;;3.45;;
20185;SDS011;10252;48.792;8.582;2022-09-16T08:58:59;5.10;;;3.13;;
20185;SDS011;10252;48.792;8.582;2022-09-16T09:04:00;2.60;;;2.40;;
20185;SDS011;10252;48.792;8.582;2022-09-16T09:24:27;3.05;;;2.60;;
20185;SDS011;10252;48.792;8.582;2022-09-16T09:29:43;3.90;;;2.47;;
20185;SDS011;10252;48.792;8.582;2022-09-16T09:45:25;3.83;;;2.35;;
20185;SDS011;10252;48.792;8.582;2022-09-16T09:50:29;3.40;;;2.20;;
20185;SDS011;10252;48.792;8.582;2022-09-16T09:55:31;3.25;;;2.53;;
20185;SDS011;10252;48.792;8.582;2022-09-16T10:00:33;6.05;;;2.30;;
20185;SDS011;10252;48.792;8.582;2022-09-16T10:05:34;6.82;;;2.60;;
20185;SDS011;10252;48.792;8.582;2022-09-16T10:10:35;6.43;;;2.55;;
20185;SDS011;10252;48.792;8.582;2022-09-16T10:15:42;4.40;;;2.10;;
20185;SDS011;10252;48.792;8.582;2022-09-16T10:20:43;4.93;;;2.38;;
20185;SDS011;10252;48.792;8.582;2022-09-16T10:26:04;3.85;;;2.08;;
20185;SDS011;10252;48.792;8.582;2022-09-16T10:31:06;3.95;;;2.00;;
20185;SDS011;10252;48.792;8.582;2022-09-16T10:36:08;2.97;;;2.25;;
20185;SDS011;10252;48.792;8.582;2022-09-16T10:41:17;5.10;;;2.78;;
20185;SDS011;10252;48.792;8.582;2022-09-16T10:46:19;2.45;;;2.25;;
20185;SDS011;10252;48.792;8.582;2022-09-16T10:51:24;6.30;;;2.10;;
20185;SDS011;10252;48.792;8.582;2022-09-16T10:56:29;7.97;;;2.67;;
20185;SDS011;10252;48.792;8.582;2022-09-16T11:42:45;4.88;;;3.17;;
20185;SDS011;10252;48.792;8.582;2022-09-16T11:58:14;3.20;;;2.65;;
20185;SDS011;10252;48.792;8.582;2022-09-16T12:08:34;5.70;;;2.40;;
20185;SDS011;10252;48.792;8.582;2022-09-16T12:13:41;6.25;;;2.30;;
20185;SDS011;10252;48.792;8.582;2022-09-16T12:18:44;3.00;;;1.92;;
20185;SDS011;10252;48.792;8.582;2022-09-16T12:23:50;3.38;;;2.30;;
20185;SDS011;10252;48.792;8.582;2022-09-16T12:34:26;4.43;;;2.10;;
20185;SDS011;10252;48.792;8.582;2022-09-16T12:39:28;3.47;;;2.35;;
20185;SDS011;10252;48.792;8.582;2022-09-16T12:50:27;2.90;;;2.17;;
20185;SDS011;10252;48.792;8.582;2022-09-16T13:00:49;2.17;;;1.83;;
20185;SDS011;10252;48.792;8.582;2022-09-16T13:05:52;3.13;;;1.85;;
20185;SDS011;10252;48.792;8.582;2022-09-16T13:16:01;3.88;;;1.70;;
20185;SDS011;10252;48.792;8.582;2022-09-16T13:21:06;6.00;;;1.88;;
20185;SDS011;10252;48.792;8.582;2022-09-16T13:26:12;3.10;;;1.83;;
20185;SDS011;10252;48.792;8.582;2022-09-16T13:31:14;3.80;;;1.50;;
20185;SDS011;10252;48.792;8.582;2022-09-16T13:41:30;2.50;;;1.75;;
20185;SDS011;10252;48.792;8.582;2022-09-16T13:46:35;5.03;;;1.80;;
20185;SDS011;10252;48.792;8.582;2022-09-16T13:51:38;2.72;;;1.83;;
20185;SDS011;10252;48.792;8.582;2022-09-16T13:56:58;3.13;;;1.75;;
20185;SDS011;10252;48.792;8.582;2022-09-16T14:02:12;2.70;;;1.73;;
20185;SDS011;10252;48.792;8.582;2022-09-16T14:07:30;5.35;;;1.42;;
20185;SDS011;10252;48.792;8.582;2022-09-16T14:17:44;2.03;;;1.60;;
20185;SDS011;10252;48.792;8.582;2022-09-16T14:22:47;2.35;;;1.55;;
20185;SDS011;10252;48.792;8.582;2022-09-16T14:27:48;4.43;;;1.58;;
20185;SDS011;10252;48.792;8.582;2022-09-16T14:32:49;9.30;;;2.50;;
20185;SDS011;10252;48.792;8.582;2022-09-16T14:37:52;3.72;;;1.65;;
20185;SDS011;10252;48.792;8.582;2022-09-16T14:43:04;5.55;;;2.05;;
20185;SDS011;10252;48.792;8.582;2022-09-16T14:48:06;4.30;;;1.55;;
20185;SDS011;10252;48.792;8.582;2022-09-16T14:53:21;2.70;;;1.67;;
20185;SDS011;10252;48.792;8.582;2022-09-16T14:58:24;5.78;;;1.60;;
20185;SDS011;10252;48.792;8.582;2022-09-16T15:08:31;3.00;;;1.73;;
20185;SDS011;10252;48.792;8.582;2022-09-16T15:13:35;5.10;;;1.70;;
20185;SDS011;10252;48.792;8.582;2022-09-16T15:18:49;4.47;;;1.83;;
20185;SDS011;10252;48.792;8.582;2022-09-16T15:23:53;3.70;;;1.50;;
20185;SDS011;10252;48.792;8.582;2022-09-16T15:28:59;3.25;;;1.45;;
20185;SDS011;10252;48.792;8.582;2022-09-16T15:34:18;2.35;;;1.40;;
20185;SDS011;10252;48.792;8.582;2022-09-16T15:44:22;2.63;;;1.35;;
20185;SDS011;10252;48.792;8.582;2022-09-16T15:49:25;5.05;;;1.77;;
20185;SDS011;10252;48.792;8.582;2022-09-16T15:54:30;2.03;;;1.10;;
20185;SDS011;10252;48.792;8.582;2022-09-16T15:59:55;2.63;;;0.85;;
20185;SDS011;10252;48.792;8.582;2022-09-16T16:05:04;2.15;;;1.55;;
20185;SDS011;10252;48.792;8.582;2022-09-16T16:10:17;2.25;;;1.20;;
20185;SDS011;10252;48.792;8.582;2022-09-16T16:15:20;2.58;;;1.02;;
20185;SDS011;10252;48.792;8.582;2022-09-16T16:20:21;3.83;;;1.40;;
20185;SDS011;10252;48.792;8.582;2022-09-16T16:25:23;4.22;;;1.20;;
20185;SDS011;10252;48.792;8.582;2022-09-16T16:30:24;4.00;;;1.35;;
20185;SDS011;10252;48.792;8.582;2022-09-16T16:35:25;5.50;;;1.65;;
20185;SDS011;10252;48.792;8.582;2022-09-16T16:40:26;4.32;;;1.15;;
20185;SDS011;10252;48.792;8.582;2022-09-16T16:45:27;3.13;;;1.40;;
20185;SDS011;10252;48.792;8.582;2022-09-16T16:50:29;3.85;;;1.30;;
20185;SDS011;10252;48.792;8.582;2022-09-16T16:55:30;2.45;;;2.03;;
20185;SDS011;10252;48.792;8.582;2022-09-16T17:00:31;6.25;;;2.13;;
20185;SDS011;10252;48.792;8.582;2022-09-16T17:05:33;3.08;;;1.90;;
20185;SDS011;10252;48.792;8.582;2022-09-16T17:10:34;4.40;;;1.58;;
20185;SDS011;10252;48.792;8.582;2022-09-16T17:15:35;4.10;;;1.05;;
20185;SDS011;10252;48.792;8.582;2022-09-16T17:20:36;2.38;;;1.08;;
20185;SDS011;10252;48.792;8.582;2022-09-16T17:25:37;3.00;;;1.00;;
20185;SDS011;10252;48.792;8.582;2022-09-16T17:30:41;4.93;;;3.50;;
20185;SDS011;10252;48.792;8.582;2022-09-16T17:35:42;5.57;;;2.92;;
20185;SDS011;10252;48.792;8.582;2022-09-16T17:40:43;4.35;;;2.42;;
20185;SDS011;10252;48.792;8.582;2022-09-16T17:45:47;8.52;;;3.70;;
20185;SDS011;10252;48.792;8.582;2022-09-16T17:50:51;16.08;;;9.30;;
20185;SDS011;10252;48.792;8.582;2022-09-16T17:55:59;10.40;;;6.82;;
20185;SDS011;10252;48.792;8.582;2022-09-16T18:06:06;2.55;;;1.98;;
20185;SDS011;10252;48.792;8.582;2022-09-16T18:11:08;2.92;;;1.35;;
20185;SDS011;10252;48.792;8.582;2022-09-16T18:16:11;3.83;;;1.52;;
20185;SDS011;10252;48.792;8.582;2022-09-16T18:21:13;9.57;;;6.70;;
20185;SDS011;10252;48.792;8.582;2022-09-16T18:26:14;23.88;;;13.23;;
20185;SDS011;10252;48.792;8.582;2022-09-16T18:31:17;11.38;;;6.32;;
20185;SDS011;10252;48.792;8.582;2022-09-16T18:36:18;13.38;;;7.95;;
20185;SDS011;10252;48.792;8.582;2022-09-16T18:41:22;2.55;;;1.30;;
20185;SDS011;10252;48.792;8.582;2022-09-16T18:46:25;3.40;;;1.85;;
20185;SDS011;10252;48.792;8.582;2022-09-16T18:51:27;4.20;;;0.85;;
20185;SDS011;10252;48.792;8.582;2022-09-16T18:56:29;2.15;;;0.55;;
20185;SDS011;10252;48.792;8.582;2022-09-16T19:01:32;0.93;;;0.52;;
20185;SDS011;10252;48.792;8.582;2022-09-16T19:06:35;1.75;;;0.80;;
20185;SDS011;10252;48.792;8.582;2022-09-16T19:11:36;1.50;;;0.90;;
20185;SDS011;10252;48.792;8.582;2022-09-16T19:16:38;1.25;;;0.75;;
20185;SDS011;10252;48.792;8.582;2022-09-16T19:21:40;0.70;;;0.50;;
20185;SDS011;10252;48.792;8.582;2022-09-16T19:26:42;5.07;;;0.63;;
20185;SDS011;10252;48.792;8.582;2022-09-16T19:31:44;0.60;;;0.57;;
20185;SDS011;10252;48.792;8.582;2022-09-16T19:36:45;1.55;;;0.50;;
20185;SDS011;10252;48.792;8.582;2022-09-16T19:41:46;1.00;;;0.60;;
20185;SDS011;10252;48.792;8.582;2022-09-16T19:46:47;1.75;;;0.45;;
20185;SDS011;10252;48.792;8.582;2022-09-16T19:51:49;0.50;;;0.50;;
20185;SDS011;10252;48.792;8.582;2022-09-16T19:56:54;0.98;;;0.50;;
20185;SDS011;10252;48.792;8.582;2022-09-16T20:01:58;3.65;;;0.70;;
20185;SDS011;10252;48.792;8.582;2022-09-16T20:06:59;1.55;;;0.40;;
20185;SDS011;10252;48.792;8.582;2022-09-16T20:12:01;2.45;;;0.60;;
20185;SDS011;10252;48.792;8.582;2022-09-16T20:17:02;3.70;;;0.80;;
20185;SDS011;10252;48.792;8.582;2022-09-16T20:22:04;0.50;;;0.40;;
20185;SDS011;10252;48.792;8.582;2022-09-16T20:27:05;1.65;;;0.70;;
20185;SDS011;10252;48.792;8.582;2022-09-16T20:32:06;1.58;;;0.50;;
20185;SDS011;10252;48.792;8.582;2022-09-16T20:37:07;0.55;;;0.50;;
20185;SDS011;10252;48.792;8.582;2022-09-16T20:42:08;1.67;;;0.77;;
20185;SDS011;10252;48.792;8.582;2022-09-16T20:47:09;2.05;;;0.80;;
20185;SDS011;10252;48.792;8.582;2022-09-16T20:52:10;1.08;;;0.88;;
20185;SDS011;10252;48.792;8.582;2022-09-16T20:57:11;3.50;;;0.82;;
20185;SDS011;10252;48.792;8.582;2022-09-16T21:02:12;2.85;;;1.23;;
20185;SDS011;10252;48.792;8.582;2022-09-16T21:07:13;2.67;;;1.42;;
20185;SDS011;10252;48.792;8.582;2022-09-16T21:12:14;3.15;;;1.27;;
20185;SDS011;10252;48.792;8.582;2022-09-16T21:17:16;4.40;;;1.40;;
20185;SDS011;10252;48.792;8.582;2022-09-16T21:22:19;2.25;;;0.95;;
20185;SDS011;10252;48.792;8.582;2022-09-16T21:27:21;1.23;;;0.80;;
20185;SDS011;10252;48.792;8.582;2022-09-16T21:32:22;1.77;;;1.05;;
20185;SDS011;10252;48.792;8.582;2022-09-16T21:37:24;1.30;;;1.00;;
20185;SDS011;10252;48.792;8.582;2022-09-16T21:42:25;1.08;;;0.93;;
20185;SDS011;10252;48.792;8.582;2022-09-16T21:47:26;1.75;;;0.77;;
20185;SDS011;10252;48.792;8.582;2022-09-16T21:52:27;2.78;;;0.95;;
20185;SDS011;10252;48.792;8.582;2022-09-16T21:57:28;2.20;;;0.80;;
20185;SDS011;10252;48.792;8.582;2022-09-16T22:02:29;7.25;;;1.08;;
20185;SDS011;10252;48.792;8.582;2022-09-16T22:07:30;3.08;;;1.02;;
20185;SDS011;10252;48.792;8.582;2022-09-16T22:12:31;2.17;;;1.00;;
20185;SDS011;10252;48.792;8.582;2022-09-16T22:17:32;1.45;;;1.10;;
20185;SDS011;10252;48.792;8.582;2022-09-16T22:22:33;1.27;;;0.90;;
20185;SDS011;10252;48.792;8.582;2022-09-16T22:27:34;1.65;;;1.00;;
20185;SDS011;10252;48.792;8.582;2022-09-16T22:32:35;1.15;;;0.90;;
20185;SDS011;10252;48.792;8.582;2022-09-16T22:37:36;2.70;;;0.90;;
20185;SDS011;10252;48.792;8.582;2022-09-16T22:42:37;1.13;;;1.00;;
20185;SDS011;10252;48.792;8.582;2022-09-16T22:47:38;2.40;;;1.05;;
20185;SDS011;10252;48.792;8.582;2022-09-16T22:52:40;3.38;;;1.20;;
20185;SDS011;10252;48.792;8.582;2022-09-16T22:57:41;2.17;;;0.90;;
20185;SDS011;10252;48.792;8.582;2022-09-16T23:02:42;3.20;;;1.40;;
20185;SDS011;10252;48.792;8.582;2022-09-16T23:07:43;3.05;;;1.60;;
20185;SDS011;10252;48.792;8.582;2022-09-16T23:12:44;1.90;;;1.58;;
20185;SDS011;10252;48.792;8.582;2022-09-16T23:17:45;2.55;;;1.17;;
20185;SDS011;10252;48.792;8.582;2022-09-16T23:22:46;3.65;;;1.60;;
20185;SDS011;10252;48.792;8.582;2022-09-16T23:27:47;1.65;;;1.45;;
20185;SDS011;10252;48.792;8.582;2022-09-16T23:32:48;3.22;;;1.08;;
20185;SDS011;10252;48.792;8.582;2022-09-16T23:37:49;2.60;;;1.45;;
20185;SDS011;10252;48.792;8.582;2022-09-16T23:42:51;3.25;;;1.65;;
20185;SDS011;10252;48.792;8.582;2022-09-16T23:47:52;3.40;;;1.85;;
20185;SDS011;10252;48.792;8.582;2022-09-16T23:52:53;4.55;;;2.50;;
20185;SDS011;10252;48.792;8.582;2022-09-16T23:57:55;3.55;;;2.00;;
